KGPH

Details ICAO KGPH
Name CLAY COUNTY RGNL
Region United States
Timezone America/Chicago (UTC-6.0)
Plans Departing 5
Arriving 1
Stats Elevation 777 ft / 237 m (AMSL)
Location 39.332509° -94.309647°
Runways 1
Magnetic Variation 1.456° E
Sunrise 2017-12-13 13:30:08 UTC / 2017-12-13 07:30:08 Local
Sunset 2017-12-13 22:55:49 UTC / 2017-12-13 16:55:49 Local
Advertisement - Login to hide

Runways

ID Width Length Bearing (true) Bearing (mag) Surface Threshold Offset Overrun Length
18 100 ft / 30 m 5,512 ft / 1,680 m 187.09° 185.63° Asphalt 0 ft / 0 m 0 ft / 0 m
36 100 ft / 30 m 5,512 ft / 1,680 m 7.09° 5.63° Asphalt 0 ft / 0 m 0 ft / 0 m

Map

Weather


0- 5 10 15 20 25 30 35+ Temperature / ° C

Clouds and Precipitation
Forecast for 2017-12-13 18:00 UTC. Updated 2 hours ago

Ground ~20,000 ft ~40,000 ft Winds

METAR

KGPH 131935Z AUTO 32021G31KT 10SM CLR 15/M02 A2972 RMK AO2

TAF

Not found

Frequencies

Unicom 122.70 MHz CTAF/UNICOM
Approach 119.00 MHz KANSAS CITY APP/DEP
Clearance 118.20 MHz KANAS CITY
Warning: Do not use this data for real-world aviation or navigation. No guarantee of current accuracy is given.